createdAt,value
2023-02-20T00:02:49.818Z,13.47
2023-02-20T00:18:45.700Z,14.53
2023-02-20T00:23:54.036Z,15.37
2023-02-20T00:28:56.141Z,14.33
2023-02-20T00:34:07.552Z,13.57
2023-02-20T00:39:12.500Z,12.23
2023-02-20T00:44:17.787Z,13.20
2023-02-20T00:49:19.855Z,13.40
2023-02-20T00:54:33.353Z,12.67
2023-02-20T01:00:00.697Z,13.67
2023-02-20T01:05:05.389Z,13.23
2023-02-20T01:10:15.320Z,14.40
2023-02-20T01:15:19.476Z,14.07
2023-02-20T01:20:25.987Z,15.33
2023-02-20T01:25:27.954Z,16.07
2023-02-20T01:30:59.160Z,13.87
2023-02-20T01:36:03.922Z,14.50
2023-02-20T01:41:14.014Z,15.43
2023-02-20T01:52:44.237Z,12.27
2023-02-20T01:57:55.972Z,13.17
2023-02-20T02:03:24.943Z,12.13
2023-02-20T02:08:28.562Z,11.47
2023-02-20T02:13:36.100Z,12.37
2023-02-20T02:18:58.776Z,12.33
2023-02-20T02:24:39.245Z,12.00
2023-02-20T02:29:54.283Z,12.37
2023-02-20T02:35:22.984Z,10.73
2023-02-20T02:40:39.173Z,12.17
2023-02-20T02:45:53.629Z,12.07
2023-02-20T02:51:08.996Z,11.60
2023-02-20T02:56:23.317Z,12.17
2023-02-20T03:01:46.893Z,11.80
2023-02-20T03:06:57.084Z,11.97
2023-02-20T03:12:07.436Z,13.23
2023-02-20T03:17:32.662Z,12.37
2023-02-20T03:22:46.907Z,12.27
2023-02-20T03:28:07.564Z,13.03
2023-02-20T03:33:57.267Z,11.47
2023-02-20T03:39:25.288Z,11.90
2023-02-20T03:44:35.101Z,12.33
2023-02-20T03:49:52.065Z,12.23
2023-02-20T03:54:57.064Z,12.90
2023-02-20T04:00:43.212Z,11.33
2023-02-20T04:05:57.991Z,13.17
2023-02-20T04:16:24.171Z,14.10
2023-02-20T04:21:49.881Z,12.93
2023-02-20T04:27:00.981Z,12.00
2023-02-20T04:32:11.366Z,11.53
2023-02-20T04:37:24.531Z,12.23
2023-02-20T04:42:29.589Z,11.03
2023-02-20T04:47:44.063Z,10.37
2023-02-20T04:52:54.161Z,10.43
2023-02-20T04:57:58.943Z,10.10
2023-02-20T05:03:06.349Z,10.93
2023-02-20T05:08:28.247Z,9.63
2023-02-20T05:13:38.883Z,9.60
2023-02-20T05:18:55.124Z,10.30
2023-02-20T05:24:09.274Z,9.20
2023-02-20T05:29:18.994Z,9.77
2023-02-20T05:34:35.983Z,9.40
2023-02-20T05:39:43.471Z,8.70
2023-02-20T05:44:53.445Z,9.80
2023-02-20T05:50:18.352Z,10.17
2023-02-20T05:55:37.531Z,8.50
2023-02-20T06:01:03.728Z,9.80
2023-02-20T06:06:13.281Z,9.87
2023-02-20T06:17:25.058Z,8.83
2023-02-20T06:22:30.136Z,10.77
2023-02-20T06:27:34.725Z,9.93
2023-02-20T06:32:48.701Z,10.07
2023-02-20T06:37:50.466Z,11.17
2023-02-20T06:42:54.881Z,12.93
2023-02-20T06:47:59.118Z,12.97
2023-02-20T06:53:03.456Z,16.87
2023-02-20T06:58:15.606Z,20.50
2023-02-20T07:03:19.098Z,22.60
2023-02-20T07:08:23.435Z,23.33
2023-02-20T07:13:25.254Z,25.90
2023-02-20T07:18:29.515Z,27.20
2023-02-20T07:23:31.638Z,28.00
2023-02-20T07:28:36.718Z,28.70
2023-02-20T07:33:45.772Z,27.07
2023-02-20T07:38:59.812Z,30.20
2023-02-20T07:44:08.891Z,27.63
2023-02-20T07:49:10.628Z,28.30
2023-02-20T07:54:12.662Z,30.07
2023-02-20T07:59:25.279Z,30.20
2023-02-20T08:04:35.270Z,28.30
2023-02-20T08:09:41.640Z,26.50
2023-02-20T08:14:46.049Z,25.10
2023-02-20T08:19:47.950Z,24.27
2023-02-20T08:24:49.682Z,23.70
2023-02-20T08:29:56.285Z,25.20
2023-02-20T08:35:02.854Z,27.67
2023-02-20T08:40:10.563Z,26.07
2023-02-20T08:45:20.319Z,25.87
2023-02-20T08:50:28.312Z,27.90
2023-02-20T08:55:40.165Z,27.57
2023-02-20T09:00:53.649Z,28.73
2023-02-20T09:06:01.756Z,29.47
2023-02-20T09:11:13.700Z,28.80
2023-02-20T09:16:24.893Z,30.07
2023-02-20T09:21:34.035Z,27.57
2023-02-20T09:26:43.201Z,29.07
2023-02-20T09:32:09.070Z,28.27
2023-02-20T09:37:18.108Z,28.70
2023-02-20T09:42:37.167Z,28.47
2023-02-20T09:47:59.061Z,26.93
2023-02-20T09:53:31.320Z,28.23
2023-02-20T09:58:57.594Z,28.23
2023-02-20T10:04:13.590Z,26.23
2023-02-20T10:09:19.634Z,27.47
2023-02-20T10:14:40.177Z,27.73
2023-02-20T10:19:55.621Z,27.83
2023-02-20T10:25:20.820Z,24.60
2023-02-20T10:30:49.955Z,26.07
2023-02-20T10:36:33.418Z,25.43
2023-02-20T10:42:07.346Z,25.90
2023-02-20T10:47:45.406Z,26.20
2023-02-20T10:53:04.789Z,28.10
2023-02-20T10:58:30.043Z,29.07
2023-02-20T11:04:17.639Z,27.93
2023-02-20T11:09:22.089Z,27.70
2023-02-20T11:14:55.331Z,28.03
2023-02-20T11:20:11.178Z,27.97
2023-02-20T11:25:37.393Z,29.10
2023-02-20T11:30:55.253Z,26.90
2023-02-20T11:36:02.822Z,28.00
2023-02-20T11:41:24.298Z,28.37
2023-02-20T11:46:35.086Z,28.27
2023-02-20T11:51:57.782Z,28.33
2023-02-20T11:57:15.815Z,26.30
2023-02-20T12:02:21.032Z,29.37
2023-02-20T12:07:25.888Z,27.70
2023-02-20T12:12:32.940Z,26.10
2023-02-20T12:17:44.721Z,28.67
2023-02-20T12:23:18.573Z,27.90
2023-02-20T12:28:49.502Z,25.10
2023-02-20T12:34:12.674Z,27.30
2023-02-20T12:39:52.261Z,26.53
2023-02-20T12:45:19.845Z,24.50
2023-02-20T12:50:38.834Z,24.50
2023-02-20T12:56:20.593Z,24.47
2023-02-20T13:01:40.427Z,24.63
2023-02-20T13:07:01.122Z,23.63
2023-02-20T13:12:27.062Z,22.90
2023-02-20T13:17:54.912Z,21.40
2023-02-20T13:23:06.832Z,21.73
2023-02-20T13:28:51.701Z,21.03
2023-02-20T13:34:35.633Z,17.23
2023-02-20T13:39:44.891Z,19.13
2023-02-20T13:44:53.544Z,17.43
2023-02-20T13:50:44.495Z,16.20
2023-02-20T13:55:51.431Z,15.80
2023-02-20T14:06:27.255Z,16.70
2023-02-20T14:11:44.941Z,15.00
2023-02-20T14:16:55.027Z,14.50
2023-02-20T14:22:27.878Z,15.67
2023-02-20T14:27:33.556Z,16.67
2023-02-20T14:33:09.739Z,16.37
2023-02-20T14:38:56.951Z,15.23
2023-02-20T14:44:01.310Z,17.50
2023-02-20T14:49:11.860Z,17.07
2023-02-20T14:59:42.487Z,16.67
2023-02-20T15:05:15.041Z,18.07
2023-02-20T15:11:03.724Z,17.33
2023-02-20T15:16:22.574Z,18.97
2023-02-20T15:21:45.715Z,18.67
2023-02-20T15:26:52.548Z,19.47
2023-02-20T15:32:04.726Z,16.97
2023-02-20T15:37:37.936Z,17.50
2023-02-20T15:43:04.841Z,18.63
2023-02-20T15:48:11.677Z,19.73
2023-02-20T15:53:27.773Z,19.33
2023-02-20T17:03:22.099Z,30.30
2023-02-20T18:16:16.124Z,28.17
2023-02-20T18:33:27.504Z,30.17
2023-02-20T18:39:39.090Z,30.67
2023-02-20T18:44:59.587Z,32.67
2023-02-20T19:02:25.073Z,32.67
2023-02-20T19:07:27.068Z,35.60
2023-02-20T19:12:30.772Z,33.70
2023-02-20T19:17:37.973Z,33.53
2023-02-20T19:22:42.909Z,35.63
2023-02-20T19:27:45.879Z,35.80
2023-02-20T19:33:20.350Z,31.30
2023-02-20T19:38:48.652Z,31.93
2023-02-20T19:44:01.807Z,52.93
2023-02-20T19:49:19.734Z,33.47
2023-02-20T19:54:44.328Z,34.03
2023-02-20T19:59:49.266Z,36.03
2023-02-20T20:04:53.441Z,34.60
2023-02-20T20:10:11.628Z,37.27
2023-02-20T20:15:32.162Z,36.77
2023-02-20T20:20:36.634Z,38.30
2023-02-20T20:25:50.398Z,35.20
2023-02-20T20:30:54.980Z,36.73
2023-02-20T20:36:09.031Z,35.00
2023-02-20T20:47:00.400Z,34.70
2023-02-20T20:58:31.508Z,35.60
2023-02-20T21:03:48.933Z,37.97
2023-02-20T21:08:53.927Z,37.23
2023-02-20T21:14:02.387Z,38.53
2023-02-20T21:19:12.507Z,38.00
2023-02-20T21:24:23.107Z,39.80
2023-02-20T21:29:35.784Z,42.20
2023-02-20T21:34:50.908Z,39.73
2023-02-20T21:39:58.512Z,51.70
2023-02-20T21:45:03.479Z,43.10
2023-02-20T21:50:34.638Z,40.40
2023-02-20T21:56:06.070Z,42.17
2023-02-20T22:01:14.957Z,40.23
2023-02-20T22:06:27.863Z,50.40
2023-02-20T22:11:51.971Z,41.23
2023-02-20T22:23:24.825Z,39.43
2023-02-20T22:28:53.763Z,44.20
2023-02-20T22:34:33.335Z,40.17
2023-02-20T22:40:06.974Z,42.83
2023-02-20T22:51:35.092Z,40.27
2023-02-20T22:57:08.944Z,40.33
2023-02-20T23:02:52.310Z,40.97
2023-02-20T23:19:53.379Z,42.80
2023-02-20T23:25:25.995Z,42.60
2023-02-20T23:30:59.033Z,38.67
2023-02-20T23:36:42.003Z,40.93
2023-02-20T23:42:05.606Z,40.30
2023-02-20T23:47:25.866Z,40.60
2023-02-20T23:52:48.597Z,39.63
2023-02-20T23:58:19.476Z,38.53
